LEMGLXGB

Guest
Details From LEMG - Malaga
To LXGB - Gibraltar
Flight Number -
Tags generated
Created
Modified
Stats Distance 59 nm / 110 km
Max Altitude 4,700 ft / 1,433 m
Waypoints 3
Social Downloads 23
Likes 0
Share

Download

Looking for another format? Having issues loading an existing format? Contact us
Advertisement - Login to hide

Notes

Basic altitude profile: - Ascent Rate: 2500ft/min - Ascent Speed: 250kts - Cruise Altitude: 35000ft - Cruise Speed: 420kts - Descent Rate: 1500ft/min - Descent Speed: 250kts Options: - Use NATs: yes - Use PACOTS: yes - Use low airways: yes - Use high airways: yes

Route

LEMG PIMOS LXGB

ID Type Via Altitude (ft/m) Position (lat/lon) Dist (leg/tot) Name
O LEMG APT - 0 / 0 36.67978 / -4.49590 - / 0 nm Malaga
PIMOS FIX - 4,700 / 1,433 36.15027 / -4.89346 37 / 37 nm
O LXGB APT - 0 / 0 36.15121 / -5.34966 22 / 59 nm Gibraltar

Altitude Profile

Advertisement - Login to hide

LEMG

Details ICAO LEMG (AGP)
Name Malaga
Region Spain
Timezone Europe/Madrid (UTC+2.0)
Stats Elevation 52 ft / 16 m (AMSL)
Location 36.675000° -4.499170°
Runways 2
Magnetic Variation 0.555° W

METAR

LEMG 221130Z 08006KT 050V110 9000 4000NW -RA FEW008 BKN018 17/17 Q1015 NOSIG

Decode

TAF

TAF LEMG 221100Z 2212/2312 13006KT 9999 BKN020 TX21/2215Z TN13/2306Z PROB40 TEMPO 2212/2216 4000 SHRA BKN014 SCT020TCU BECMG 2222/2301 29006KT

Decode

Departure Runways

ID Width Length Bearing (true/mag) Surface Threshold Overrun Markings Lighting
12 148 ft / 45 m 10,057 ft / 3,065 m 117.76° / 118.31° ASPHALT 0 ft / 0 m 745 ft / 227 m PREC-APP CENTERLINE EDGE THRESHOLD ALSF-I TDZ REIL-OMNI
13 148 ft / 45 m 10,509 ft / 3,203 m 131.69° / 132.24° ASPHALT 0 ft / 0 m 246 ft / 75 m PREC-APP CENTERLINE EDGE THRESHOLD ALSF-I REIL-OMNI
30 148 ft / 45 m 10,057 ft / 3,065 m 297.78° / 298.33° ASPHALT 1,115 ft / 340 m 472 ft / 144 m PREC-APP CENTERLINE EDGE THRESHOLD REIL-OMNI
31 148 ft / 45 m 10,509 ft / 3,203 m 311.70° / 312.26° ASPHALT 0 ft / 0 m 246 ft / 75 m PREC-APP CENTERLINE EDGE THRESHOLD ALSF-I REIL-OMNI

LXGB

Details ICAO LXGB (GIB)
Name Gibraltar
Region Gibralter
Timezone Europe/Gibraltar (UTC+2.0)
Stats Elevation 15 ft / 5 m (AMSL)
Location 36.151200° -5.349850°
Runways 1
Magnetic Variation 0.799° W

METAR

LXGB 221125Z 18002KT 9999 FEW010 SCT020 BKN030 19/16 Q1015 TEMPO 7000 SHRA SCT010 RMK WHT TEMPO GRN

Decode

TAF

Not found

Destination Runways

ID Width Length Bearing (true/mag) Surface Threshold Overrun Markings Lighting
09 148 ft / 45 m 5,836 ft / 1,779 m 87.52° / 88.32° ASPHALT 476 ft / 145 m 0 ft / 0 m UK-PREC-APP EDGE THRESHOLD REIL-OMNI
27 148 ft / 45 m 5,836 ft / 1,779 m 267.53° / 268.33° ASPHALT 354 ft / 108 m 0 ft / 0 m UK-PREC-APP EDGE THRESHOLD REIL-OMNI

Popular Alternatives